sensor_id;sensor_type;location;lat;lon;timestamp;P1;durP1;ratioP1;P2;durP2;ratioP2
35074;SDS011;21260;34.984;32.490;2023-08-07T00:01:09;9.23;;;3.53;;
35074;SDS011;21260;34.984;32.490;2023-08-07T00:03:35;8.30;;;3.40;;
35074;SDS011;21260;34.984;32.490;2023-08-07T00:06:03;7.68;;;3.65;;
35074;SDS011;21260;34.984;32.490;2023-08-07T00:08:29;10.40;;;3.28;;
35074;SDS011;21260;34.984;32.490;2023-08-07T00:11:05;8.68;;;3.80;;
35074;SDS011;21260;34.984;32.490;2023-08-07T00:13:35;8.05;;;3.70;;
35074;SDS011;21260;34.984;32.490;2023-08-07T00:16:02;8.50;;;3.58;;
35074;SDS011;21260;34.984;32.490;2023-08-07T00:18:29;7.13;;;3.17;;
35074;SDS011;21260;34.984;32.490;2023-08-07T00:20:55;6.60;;;3.28;;
35074;SDS011;21260;34.984;32.490;2023-08-07T00:23:23;7.27;;;3.50;;
35074;SDS011;21260;34.984;32.490;2023-08-07T00:25:49;11.43;;;3.67;;
35074;SDS011;21260;34.984;32.490;2023-08-07T00:28:17;6.80;;;3.50;;
35074;SDS011;21260;34.984;32.490;2023-08-07T00:30:44;9.68;;;4.13;;
35074;SDS011;21260;34.984;32.490;2023-08-07T00:33:10;9.15;;;4.20;;
35074;SDS011;21260;34.984;32.490;2023-08-07T00:35:36;8.70;;;4.32;;
35074;SDS011;21260;34.984;32.490;2023-08-07T00:38:03;12.18;;;4.50;;
35074;SDS011;21260;34.984;32.490;2023-08-07T00:40:36;9.57;;;4.28;;
35074;SDS011;21260;34.984;32.490;2023-08-07T00:43:05;10.65;;;4.22;;
35074;SDS011;21260;34.984;32.490;2023-08-07T00:45:34;9.95;;;4.07;;
35074;SDS011;21260;34.984;32.490;2023-08-07T00:48:07;9.55;;;4.50;;
35074;SDS011;21260;34.984;32.490;2023-08-07T00:50:34;10.40;;;4.40;;
35074;SDS011;21260;34.984;32.490;2023-08-07T00:53:01;9.48;;;4.20;;
35074;SDS011;21260;34.984;32.490;2023-08-07T00:55:29;10.95;;;4.43;;
35074;SDS011;21260;34.984;32.490;2023-08-07T00:57:56;10.23;;;4.40;;
35074;SDS011;21260;34.984;32.490;2023-08-07T01:00:25;12.48;;;4.78;;
35074;SDS011;21260;34.984;32.490;2023-08-07T01:02:55;6.07;;;3.72;;
35074;SDS011;21260;34.984;32.490;2023-08-07T01:05:24;9.50;;;4.28;;
35074;SDS011;21260;34.984;32.490;2023-08-07T01:07:51;8.57;;;4.10;;
35074;SDS011;21260;34.984;32.490;2023-08-07T01:10:25;7.95;;;3.90;;
35074;SDS011;21260;34.984;32.490;2023-08-07T01:13:24;7.38;;;3.85;;
35074;SDS011;21260;34.984;32.490;2023-08-07T01:16:01;8.40;;;4.20;;
35074;SDS011;21260;34.984;32.490;2023-08-07T01:18:40;7.57;;;3.90;;
35074;SDS011;21260;34.984;32.490;2023-08-07T01:21:16;8.10;;;3.78;;
35074;SDS011;21260;34.984;32.490;2023-08-07T01:23:45;9.48;;;4.28;;
35074;SDS011;21260;34.984;32.490;2023-08-07T01:26:13;7.70;;;3.75;;
35074;SDS011;21260;34.984;32.490;2023-08-07T01:29:32;8.00;;;3.80;;
35074;SDS011;21260;34.984;32.490;2023-08-07T01:31:52;5.97;;;3.63;;
35074;SDS011;21260;34.984;32.490;2023-08-07T01:34:22;6.57;;;3.53;;
35074;SDS011;21260;34.984;32.490;2023-08-07T01:36:51;9.47;;;3.93;;
35074;SDS011;21260;34.984;32.490;2023-08-07T01:39:20;6.38;;;3.40;;
35074;SDS011;21260;34.984;32.490;2023-08-07T01:41:48;10.67;;;3.70;;
35074;SDS011;21260;34.984;32.490;2023-08-07T01:44:15;6.93;;;3.87;;
35074;SDS011;21260;34.984;32.490;2023-08-07T01:46:42;10.10;;;3.60;;
35074;SDS011;21260;34.984;32.490;2023-08-07T01:49:08;6.18;;;3.20;;
35074;SDS011;21260;34.984;32.490;2023-08-07T01:51:34;7.65;;;3.50;;
35074;SDS011;21260;34.984;32.490;2023-08-07T01:54:00;8.18;;;3.78;;
35074;SDS011;21260;34.984;32.490;2023-08-07T01:56:26;8.35;;;3.50;;
35074;SDS011;21260;34.984;32.490;2023-08-07T01:58:53;9.40;;;3.30;;
35074;SDS011;21260;34.984;32.490;2023-08-07T02:01:19;7.65;;;3.45;;
35074;SDS011;21260;34.984;32.490;2023-08-07T02:03:45;6.75;;;3.42;;
35074;SDS011;21260;34.984;32.490;2023-08-07T02:06:11;7.90;;;3.30;;
35074;SDS011;21260;34.984;32.490;2023-08-07T02:08:37;7.40;;;3.55;;
35074;SDS011;21260;34.984;32.490;2023-08-07T02:11:04;8.00;;;3.40;;
35074;SDS011;21260;34.984;32.490;2023-08-07T02:13:30;5.38;;;3.30;;
35074;SDS011;21260;34.984;32.490;2023-08-07T02:15:56;6.90;;;3.33;;
35074;SDS011;21260;34.984;32.490;2023-08-07T02:18:23;6.50;;;3.47;;
35074;SDS011;21260;34.984;32.490;2023-08-07T02:20:49;8.27;;;3.75;;
35074;SDS011;21260;34.984;32.490;2023-08-07T02:23:15;8.45;;;3.78;;
35074;SDS011;21260;34.984;32.490;2023-08-07T02:25:44;5.60;;;3.40;;
35074;SDS011;21260;34.984;32.490;2023-08-07T02:28:10;9.57;;;3.80;;
35074;SDS011;21260;34.984;32.490;2023-08-07T02:30:37;9.20;;;3.53;;
35074;SDS011;21260;34.984;32.490;2023-08-07T02:33:03;7.13;;;3.60;;
35074;SDS011;21260;34.984;32.490;2023-08-07T02:35:30;8.83;;;3.83;;
35074;SDS011;21260;34.984;32.490;2023-08-07T02:37:56;6.70;;;3.70;;
35074;SDS011;21260;34.984;32.490;2023-08-07T02:40:22;9.75;;;3.90;;
35074;SDS011;21260;34.984;32.490;2023-08-07T02:42:49;9.18;;;4.13;;
35074;SDS011;21260;34.984;32.490;2023-08-07T02:45:15;7.25;;;3.90;;
35074;SDS011;21260;34.984;32.490;2023-08-07T02:47:41;9.40;;;3.95;;
35074;SDS011;21260;34.984;32.490;2023-08-07T02:50:07;9.73;;;4.45;;
35074;SDS011;21260;34.984;32.490;2023-08-07T02:52:34;10.27;;;4.07;;
35074;SDS011;21260;34.984;32.490;2023-08-07T02:55:00;7.80;;;3.65;;
35074;SDS011;21260;34.984;32.490;2023-08-07T02:57:27;8.25;;;4.13;;
35074;SDS011;21260;34.984;32.490;2023-08-07T02:59:53;7.97;;;3.80;;
35074;SDS011;21260;34.984;32.490;2023-08-07T03:02:20;7.97;;;3.90;;
35074;SDS011;21260;34.984;32.490;2023-08-07T03:04:46;9.77;;;4.40;;
35074;SDS011;21260;34.984;32.490;2023-08-07T03:07:13;11.18;;;4.50;;
35074;SDS011;21260;34.984;32.490;2023-08-07T03:09:39;7.90;;;3.80;;
35074;SDS011;21260;34.984;32.490;2023-08-07T03:12:05;8.07;;;3.83;;
35074;SDS011;21260;34.984;32.490;2023-08-07T03:14:32;7.37;;;3.80;;
35074;SDS011;21260;34.984;32.490;2023-08-07T03:16:58;9.02;;;4.38;;
35074;SDS011;21260;34.984;32.490;2023-08-07T03:19:24;8.85;;;3.88;;
35074;SDS011;21260;34.984;32.490;2023-08-07T03:21:50;8.90;;;3.85;;
35074;SDS011;21260;34.984;32.490;2023-08-07T03:24:17;7.18;;;3.70;;
35074;SDS011;21260;34.984;32.490;2023-08-07T03:26:43;7.88;;;3.65;;
35074;SDS011;21260;34.984;32.490;2023-08-07T03:29:09;7.10;;;3.70;;
35074;SDS011;21260;34.984;32.490;2023-08-07T03:31:35;7.13;;;3.57;;
35074;SDS011;21260;34.984;32.490;2023-08-07T03:34:01;9.07;;;3.70;;
35074;SDS011;21260;34.984;32.490;2023-08-07T03:36:28;10.15;;;4.07;;
35074;SDS011;21260;34.984;32.490;2023-08-07T03:38:54;7.45;;;3.25;;
35074;SDS011;21260;34.984;32.490;2023-08-07T03:41:20;8.13;;;3.78;;
35074;SDS011;21260;34.984;32.490;2023-08-07T03:43:46;9.73;;;3.95;;
35074;SDS011;21260;34.984;32.490;2023-08-07T03:46:12;9.75;;;4.30;;
35074;SDS011;21260;34.984;32.490;2023-08-07T03:48:38;7.82;;;3.75;;
35074;SDS011;21260;34.984;32.490;2023-08-07T03:51:05;9.05;;;3.78;;
35074;SDS011;21260;34.984;32.490;2023-08-07T03:53:36;8.05;;;3.80;;
35074;SDS011;21260;34.984;32.490;2023-08-07T03:56:03;6.93;;;3.60;;
35074;SDS011;21260;34.984;32.490;2023-08-07T03:58:29;8.35;;;3.70;;
35074;SDS011;21260;34.984;32.490;2023-08-07T04:00:56;7.93;;;3.88;;
35074;SDS011;21260;34.984;32.490;2023-08-07T04:03:22;8.35;;;3.35;;
35074;SDS011;21260;34.984;32.490;2023-08-07T04:05:52;6.95;;;3.53;;
35074;SDS011;21260;34.984;32.490;2023-08-07T04:08:20;12.77;;;4.15;;
35074;SDS011;21260;34.984;32.490;2023-08-07T04:11:03;8.30;;;3.70;;
35074;SDS011;21260;34.984;32.490;2023-08-07T04:13:30;8.25;;;3.75;;
35074;SDS011;21260;34.984;32.490;2023-08-07T04:15:57;8.68;;;3.67;;
35074;SDS011;21260;34.984;32.490;2023-08-07T04:18:25;8.45;;;3.50;;
35074;SDS011;21260;34.984;32.490;2023-08-07T04:20:55;9.80;;;3.72;;
35074;SDS011;21260;34.984;32.490;2023-08-07T04:23:22;7.23;;;3.70;;
35074;SDS011;21260;34.984;32.490;2023-08-07T04:25:53;7.20;;;3.63;;
35074;SDS011;21260;34.984;32.490;2023-08-07T04:28:19;6.43;;;3.35;;
35074;SDS011;21260;34.984;32.490;2023-08-07T04:30:48;9.40;;;3.58;;
35074;SDS011;21260;34.984;32.490;2023-08-07T04:33:16;7.28;;;3.40;;
35074;SDS011;21260;34.984;32.490;2023-08-07T04:35:42;9.10;;;3.53;;
35074;SDS011;21260;34.984;32.490;2023-08-07T04:38:09;9.45;;;3.80;;
35074;SDS011;21260;34.984;32.490;2023-08-07T04:40:35;8.32;;;3.65;;
35074;SDS011;21260;34.984;32.490;2023-08-07T04:43:01;7.90;;;3.60;;
35074;SDS011;21260;34.984;32.490;2023-08-07T04:45:27;8.10;;;3.70;;
35074;SDS011;21260;34.984;32.490;2023-08-07T04:47:54;9.55;;;3.72;;
35074;SDS011;21260;34.984;32.490;2023-08-07T04:50:20;6.75;;;3.40;;
35074;SDS011;21260;34.984;32.490;2023-08-07T04:52:46;8.30;;;3.50;;
35074;SDS011;21260;34.984;32.490;2023-08-07T04:55:12;6.50;;;3.60;;
35074;SDS011;21260;34.984;32.490;2023-08-07T04:57:38;8.50;;;3.60;;
35074;SDS011;21260;34.984;32.490;2023-08-07T05:00:05;9.70;;;4.13;;
35074;SDS011;21260;34.984;32.490;2023-08-07T05:02:33;10.13;;;3.80;;
35074;SDS011;21260;34.984;32.490;2023-08-07T05:04:59;8.63;;;3.78;;
35074;SDS011;21260;34.984;32.490;2023-08-07T05:07:25;7.72;;;3.75;;
35074;SDS011;21260;34.984;32.490;2023-08-07T05:09:51;9.45;;;3.67;;
35074;SDS011;21260;34.984;32.490;2023-08-07T05:12:18;8.93;;;3.63;;
35074;SDS011;21260;34.984;32.490;2023-08-07T05:14:44;11.43;;;3.90;;
35074;SDS011;21260;34.984;32.490;2023-08-07T05:17:11;8.07;;;3.80;;
35074;SDS011;21260;34.984;32.490;2023-08-07T05:19:38;9.10;;;3.57;;
35074;SDS011;21260;34.984;32.490;2023-08-07T05:22:04;10.10;;;3.87;;
35074;SDS011;21260;34.984;32.490;2023-08-07T05:24:30;8.27;;;3.30;;
35074;SDS011;21260;34.984;32.490;2023-08-07T05:27:04;9.50;;;3.70;;
35074;SDS011;21260;34.984;32.490;2023-08-07T05:29:33;9.57;;;3.70;;
35074;SDS011;21260;34.984;32.490;2023-08-07T05:32:08;9.55;;;3.50;;
35074;SDS011;21260;34.984;32.490;2023-08-07T05:34:36;9.73;;;4.03;;
35074;SDS011;21260;34.984;32.490;2023-08-07T05:37:03;8.55;;;3.58;;
35074;SDS011;21260;34.984;32.490;2023-08-07T05:39:31;8.27;;;3.53;;
35074;SDS011;21260;34.984;32.490;2023-08-07T05:41:58;7.82;;;3.20;;
35074;SDS011;21260;34.984;32.490;2023-08-07T05:44:24;9.80;;;3.80;;
35074;SDS011;21260;34.984;32.490;2023-08-07T05:46:51;7.20;;;3.35;;
35074;SDS011;21260;34.984;32.490;2023-08-07T05:49:17;10.45;;;3.65;;
35074;SDS011;21260;34.984;32.490;2023-08-07T05:51:44;8.63;;;3.55;;
35074;SDS011;21260;34.984;32.490;2023-08-07T05:54:10;6.95;;;3.10;;
35074;SDS011;21260;34.984;32.490;2023-08-07T05:56:37;8.30;;;3.50;;
35074;SDS011;21260;34.984;32.490;2023-08-07T05:59:03;10.65;;;3.65;;
35074;SDS011;21260;34.984;32.490;2023-08-07T06:01:30;9.30;;;3.50;;
35074;SDS011;21260;34.984;32.490;2023-08-07T06:03:57;9.20;;;3.57;;
35074;SDS011;21260;34.984;32.490;2023-08-07T06:06:24;8.07;;;3.30;;
35074;SDS011;21260;34.984;32.490;2023-08-07T06:08:53;8.07;;;3.10;;
35074;SDS011;21260;34.984;32.490;2023-08-07T06:11:22;8.80;;;3.60;;
35074;SDS011;21260;34.984;32.490;2023-08-07T06:13:48;9.27;;;3.20;;
35074;SDS011;21260;34.984;32.490;2023-08-07T06:16:15;6.97;;;3.15;;
35074;SDS011;21260;34.984;32.490;2023-08-07T06:18:41;8.93;;;3.13;;
35074;SDS011;21260;34.984;32.490;2023-08-07T06:21:07;8.45;;;3.40;;
35074;SDS011;21260;34.984;32.490;2023-08-07T06:23:36;8.80;;;3.33;;
35074;SDS011;21260;34.984;32.490;2023-08-07T06:26:03;8.82;;;3.00;;
35074;SDS011;21260;34.984;32.490;2023-08-07T06:28:32;8.05;;;3.22;;
35074;SDS011;21260;34.984;32.490;2023-08-07T06:31:02;8.20;;;3.30;;
35074;SDS011;21260;34.984;32.490;2023-08-07T06:33:31;7.80;;;2.90;;
35074;SDS011;21260;34.984;32.490;2023-08-07T06:36:01;7.70;;;3.30;;
35074;SDS011;21260;34.984;32.490;2023-08-07T06:38:29;5.93;;;2.72;;
35074;SDS011;21260;34.984;32.490;2023-08-07T06:40:56;7.90;;;2.75;;
35074;SDS011;21260;34.984;32.490;2023-08-07T06:43:23;6.20;;;2.85;;
35074;SDS011;21260;34.984;32.490;2023-08-07T06:45:49;8.93;;;3.00;;
35074;SDS011;21260;34.984;32.490;2023-08-07T06:48:17;6.47;;;2.90;;
35074;SDS011;21260;34.984;32.490;2023-08-07T06:50:44;7.63;;;2.70;;
35074;SDS011;21260;34.984;32.490;2023-08-07T06:53:15;7.25;;;3.10;;
35074;SDS011;21260;34.984;32.490;2023-08-07T06:55:42;9.07;;;3.10;;
35074;SDS011;21260;34.984;32.490;2023-08-07T06:58:09;9.82;;;3.40;;
35074;SDS011;21260;34.984;32.490;2023-08-07T07:00:36;9.80;;;3.20;;
35074;SDS011;21260;34.984;32.490;2023-08-07T07:03:02;8.73;;;3.10;;
35074;SDS011;21260;34.984;32.490;2023-08-07T07:05:29;10.23;;;3.10;;
35074;SDS011;21260;34.984;32.490;2023-08-07T07:07:58;10.85;;;3.15;;
35074;SDS011;21260;34.984;32.490;2023-08-07T07:10:24;6.03;;;2.95;;
35074;SDS011;21260;34.984;32.490;2023-08-07T07:12:51;7.47;;;2.95;;
35074;SDS011;21260;34.984;32.490;2023-08-07T07:15:17;7.30;;;2.80;;
35074;SDS011;21260;34.984;32.490;2023-08-07T07:17:44;7.80;;;2.80;;
35074;SDS011;21260;34.984;32.490;2023-08-07T07:20:10;7.75;;;2.97;;
35074;SDS011;21260;34.984;32.490;2023-08-07T07:22:36;9.75;;;3.15;;
35074;SDS011;21260;34.984;32.490;2023-08-07T07:25:03;8.20;;;3.35;;
35074;SDS011;21260;34.984;32.490;2023-08-07T07:27:30;10.38;;;3.35;;
35074;SDS011;21260;34.984;32.490;2023-08-07T07:29:56;8.13;;;3.40;;
35074;SDS011;21260;34.984;32.490;2023-08-07T07:32:23;10.70;;;3.50;;
35074;SDS011;21260;34.984;32.490;2023-08-07T07:34:51;8.90;;;3.25;;
35074;SDS011;21260;34.984;32.490;2023-08-07T07:37:17;8.68;;;3.40;;
35074;SDS011;21260;34.984;32.490;2023-08-07T07:39:43;10.15;;;3.60;;
35074;SDS011;21260;34.984;32.490;2023-08-07T07:42:10;10.43;;;3.75;;
35074;SDS011;21260;34.984;32.490;2023-08-07T07:44:36;8.85;;;3.65;;
35074;SDS011;21260;34.984;32.490;2023-08-07T07:47:03;8.80;;;3.67;;
35074;SDS011;21260;34.984;32.490;2023-08-07T07:49:31;8.00;;;3.23;;
35074;SDS011;21260;34.984;32.490;2023-08-07T07:51:59;9.63;;;3.65;;
35074;SDS011;21260;34.984;32.490;2023-08-07T07:54:25;10.70;;;3.80;;
35074;SDS011;21260;34.984;32.490;2023-08-07T07:56:54;12.00;;;3.70;;
35074;SDS011;21260;34.984;32.490;2023-08-07T07:59:20;9.40;;;3.95;;
35074;SDS011;21260;34.984;32.490;2023-08-07T08:01:47;11.80;;;3.60;;
35074;SDS011;21260;34.984;32.490;2023-08-07T08:04:13;11.95;;;3.83;;
35074;SDS011;21260;34.984;32.490;2023-08-07T08:06:40;12.43;;;3.75;;
35074;SDS011;21260;34.984;32.490;2023-08-07T08:09:06;11.80;;;3.92;;
35074;SDS011;21260;34.984;32.490;2023-08-07T08:11:34;12.38;;;3.63;;
35074;SDS011;21260;34.984;32.490;2023-08-07T08:14:01;11.15;;;3.75;;
35074;SDS011;21260;34.984;32.490;2023-08-07T08:16:27;12.57;;;3.78;;
35074;SDS011;21260;34.984;32.490;2023-08-07T08:18:53;11.13;;;3.75;;
35074;SDS011;21260;34.984;32.490;2023-08-07T08:21:19;15.35;;;3.85;;
35074;SDS011;21260;34.984;32.490;2023-08-07T08:23:46;11.00;;;3.63;;
35074;SDS011;21260;34.984;32.490;2023-08-07T08:26:12;13.98;;;3.85;;
35074;SDS011;21260;34.984;32.490;2023-08-07T08:28:38;13.15;;;3.92;;
35074;SDS011;21260;34.984;32.490;2023-08-07T08:31:05;9.95;;;3.42;;
35074;SDS011;21260;34.984;32.490;2023-08-07T08:33:31;11.60;;;4.03;;
35074;SDS011;21260;34.984;32.490;2023-08-07T08:35:59;9.57;;;3.42;;
35074;SDS011;21260;34.984;32.490;2023-08-07T08:38:26;10.00;;;3.50;;
35074;SDS011;21260;34.984;32.490;2023-08-07T08:40:57;12.52;;;3.80;;
35074;SDS011;21260;34.984;32.490;2023-08-07T08:43:29;11.23;;;3.38;;
35074;SDS011;21260;34.984;32.490;2023-08-07T08:46:06;10.48;;;3.53;;
35074;SDS011;21260;34.984;32.490;2023-08-07T08:48:34;11.30;;;3.42;;
35074;SDS011;21260;34.984;32.490;2023-08-07T08:51:04;10.55;;;3.80;;
35074;SDS011;21260;34.984;32.490;2023-08-07T08:53:33;9.95;;;3.33;;
35074;SDS011;21260;34.984;32.490;2023-08-07T08:56:00;12.57;;;3.63;;
35074;SDS011;21260;34.984;32.490;2023-08-07T08:58:27;10.75;;;3.45;;
35074;SDS011;21260;34.984;32.490;2023-08-07T09:00:54;10.00;;;3.40;;
35074;SDS011;21260;34.984;32.490;2023-08-07T09:03:21;11.27;;;4.00;;
35074;SDS011;21260;34.984;32.490;2023-08-07T09:05:48;8.73;;;3.53;;
35074;SDS011;21260;34.984;32.490;2023-08-07T09:08:19;12.95;;;3.58;;
35074;SDS011;21260;34.984;32.490;2023-08-07T09:10:49;12.50;;;3.72;;
35074;SDS011;21260;34.984;32.490;2023-08-07T09:13:18;10.80;;;3.40;;
35074;SDS011;21260;34.984;32.490;2023-08-07T09:15:52;15.70;;;3.53;;
35074;SDS011;21260;34.984;32.490;2023-08-07T09:18:20;15.23;;;3.80;;
35074;SDS011;21260;34.984;32.490;2023-08-07T09:20:46;12.43;;;4.00;;
35074;SDS011;21260;34.984;32.490;2023-08-07T09:23:17;12.23;;;3.73;;
35074;SDS011;21260;34.984;32.490;2023-08-07T09:25:44;14.98;;;4.00;;
35074;SDS011;21260;34.984;32.490;2023-08-07T09:28:11;14.85;;;3.90;;
35074;SDS011;21260;34.984;32.490;2023-08-07T09:30:38;17.35;;;3.80;;
35074;SDS011;21260;34.984;32.490;2023-08-07T09:33:09;14.00;;;3.50;;
35074;SDS011;21260;34.984;32.490;2023-08-07T09:35:35;19.45;;;4.25;;
35074;SDS011;21260;34.984;32.490;2023-08-07T09:38:01;15.15;;;3.70;;
35074;SDS011;21260;34.984;32.490;2023-08-07T09:40:29;14.55;;;3.97;;
35074;SDS011;21260;34.984;32.490;2023-08-07T09:42:56;13.63;;;3.67;;
35074;SDS011;21260;34.984;32.490;2023-08-07T09:57:21;13.20;;;3.72;;
35074;SDS011;21260;34.984;32.490;2023-08-07T09:59:50;15.88;;;3.63;;
35074;SDS011;21260;34.984;32.490;2023-08-07T10:02:17;12.93;;;3.58;;
35074;SDS011;21260;34.984;32.490;2023-08-07T10:04:46;15.80;;;4.20;;
35074;SDS011;21260;34.984;32.490;2023-08-07T10:07:13;15.10;;;3.38;;
35074;SDS011;21260;34.984;32.490;2023-08-07T10:09:40;9.52;;;3.35;;
35074;SDS011;21260;34.984;32.490;2023-08-07T10:12:09;16.02;;;3.63;;
35074;SDS011;21260;34.984;32.490;2023-08-07T10:14:36;16.10;;;3.70;;
35074;SDS011;21260;34.984;32.490;2023-08-07T10:17:03;12.48;;;3.45;;
35074;SDS011;21260;34.984;32.490;2023-08-07T10:19:31;13.57;;;3.67;;
35074;SDS011;21260;34.984;32.490;2023-08-07T10:21:57;9.10;;;3.30;;
35074;SDS011;21260;34.984;32.490;2023-08-07T10:24:24;10.52;;;3.30;;
35074;SDS011;21260;34.984;32.490;2023-08-07T10:26:52;14.07;;;3.55;;
35074;SDS011;21260;34.984;32.490;2023-08-07T10:29:21;12.85;;;3.63;;
35074;SDS011;21260;34.984;32.490;2023-08-07T10:31:50;12.32;;;3.42;;
35074;SDS011;21260;34.984;32.490;2023-08-07T10:34:22;13.05;;;3.60;;
35074;SDS011;21260;34.984;32.490;2023-08-07T10:36:48;11.00;;;3.60;;
35074;SDS011;21260;34.984;32.490;2023-08-07T10:39:15;13.55;;;3.72;;
35074;SDS011;21260;34.984;32.490;2023-08-07T10:41:44;12.63;;;3.60;;
35074;SDS011;21260;34.984;32.490;2023-08-07T10:44:19;12.57;;;3.53;;
35074;SDS011;21260;34.984;32.490;2023-08-07T10:46:52;10.98;;;3.60;;
35074;SDS011;21260;34.984;32.490;2023-08-07T10:49:29;12.90;;;3.70;;
35074;SDS011;21260;34.984;32.490;2023-08-07T10:52:11;13.80;;;3.77;;
35074;SDS011;21260;34.984;32.490;2023-08-07T10:54:40;11.43;;;3.30;;
35074;SDS011;21260;34.984;32.490;2023-08-07T10:57:17;11.00;;;3.20;;
35074;SDS011;21260;34.984;32.490;2023-08-07T11:00:05;11.55;;;3.17;;
35074;SDS011;21260;34.984;32.490;2023-08-07T11:02:33;11.05;;;3.35;;
35074;SDS011;21260;34.984;32.490;2023-08-07T11:05:05;12.38;;;3.00;;
35074;SDS011;21260;34.984;32.490;2023-08-07T11:07:32;9.57;;;3.30;;
35074;SDS011;21260;34.984;32.490;2023-08-07T11:09:59;13.30;;;3.53;;
35074;SDS011;21260;34.984;32.490;2023-08-07T11:12:26;9.57;;;3.00;;
35074;SDS011;21260;34.984;32.490;2023-08-07T11:14:57;9.07;;;3.40;;
35074;SDS011;21260;34.984;32.490;2023-08-07T11:17:24;11.07;;;3.45;;
35074;SDS011;21260;34.984;32.490;2023-08-07T11:19:52;9.25;;;3.25;;
35074;SDS011;21260;34.984;32.490;2023-08-07T11:22:20;10.97;;;3.37;;
35074;SDS011;21260;34.984;32.490;2023-08-07T11:24:47;8.95;;;2.97;;
35074;SDS011;21260;34.984;32.490;2023-08-07T11:27:14;13.20;;;3.53;;
35074;SDS011;21260;34.984;32.490;2023-08-07T11:29:40;11.23;;;3.25;;
35074;SDS011;21260;34.984;32.490;2023-08-07T11:32:08;8.82;;;3.17;;
35074;SDS011;21260;34.984;32.490;2023-08-07T11:34:35;9.77;;;3.30;;
35074;SDS011;21260;34.984;32.490;2023-08-07T11:37:02;10.43;;;3.05;;
35074;SDS011;21260;34.984;32.490;2023-08-07T11:39:28;11.95;;;2.83;;
35074;SDS011;21260;34.984;32.490;2023-08-07T11:41:55;8.15;;;2.67;;
35074;SDS011;21260;34.984;32.490;2023-08-07T11:44:22;10.13;;;3.22;;
35074;SDS011;21260;34.984;32.490;2023-08-07T11:46:50;8.18;;;3.17;;
35074;SDS011;21260;34.984;32.490;2023-08-07T11:49:17;10.10;;;3.10;;
35074;SDS011;21260;34.984;32.490;2023-08-07T11:51:44;9.60;;;2.77;;
35074;SDS011;21260;34.984;32.490;2023-08-07T11:54:13;11.30;;;3.17;;
35074;SDS011;21260;34.984;32.490;2023-08-07T11:56:41;11.57;;;3.00;;
35074;SDS011;21260;34.984;32.490;2023-08-07T11:59:10;12.35;;;2.97;;
35074;SDS011;21260;34.984;32.490;2023-08-07T12:01:37;12.45;;;3.13;;
35074;SDS011;21260;34.984;32.490;2023-08-07T12:06:33;10.88;;;3.15;;
35074;SDS011;21260;34.984;32.490;2023-08-07T12:09:01;11.83;;;3.13;;
35074;SDS011;21260;34.984;32.490;2023-08-07T12:11:31;12.50;;;3.37;;
35074;SDS011;21260;34.984;32.490;2023-08-07T12:13:59;13.10;;;3.13;;
35074;SDS011;21260;34.984;32.490;2023-08-07T12:16:32;10.48;;;3.35;;
35074;SDS011;21260;34.984;32.490;2023-08-07T12:19:00;11.00;;;3.05;;
35074;SDS011;21260;34.984;32.490;2023-08-07T12:21:29;11.88;;;3.20;;
35074;SDS011;21260;34.984;32.490;2023-08-07T12:23:58;14.98;;;3.72;;
35074;SDS011;21260;34.984;32.490;2023-08-07T12:26:25;9.32;;;3.10;;
35074;SDS011;21260;34.984;32.490;2023-08-07T12:28:52;13.38;;;3.70;;
35074;SDS011;21260;34.984;32.490;2023-08-07T12:31:19;15.43;;;3.80;;
35074;SDS011;21260;34.984;32.490;2023-08-07T12:33:46;11.77;;;3.35;;
35074;SDS011;21260;34.984;32.490;2023-08-07T12:36:12;14.25;;;3.40;;
35074;SDS011;21260;34.984;32.490;2023-08-07T12:38:40;13.27;;;3.30;;
35074;SDS011;21260;34.984;32.490;2023-08-07T12:41:06;13.90;;;3.60;;
35074;SDS011;21260;34.984;32.490;2023-08-07T12:43:33;11.52;;;3.13;;
35074;SDS011;21260;34.984;32.490;2023-08-07T12:45:59;11.98;;;3.40;;
35074;SDS011;21260;34.984;32.490;2023-08-07T12:48:26;10.93;;;3.10;;
35074;SDS011;21260;34.984;32.490;2023-08-07T12:50:53;12.00;;;3.60;;
35074;SDS011;21260;34.984;32.490;2023-08-07T12:53:20;12.30;;;3.28;;
35074;SDS011;21260;34.984;32.490;2023-08-07T12:55:46;13.40;;;3.53;;
35074;SDS011;21260;34.984;32.490;2023-08-07T12:58:12;11.18;;;3.20;;
35074;SDS011;21260;34.984;32.490;2023-08-07T13:00:38;14.48;;;4.10;;
35074;SDS011;21260;34.984;32.490;2023-08-07T13:03:05;13.32;;;3.83;;
35074;SDS011;21260;34.984;32.490;2023-08-07T13:05:31;10.70;;;3.40;;
35074;SDS011;21260;34.984;32.490;2023-08-07T13:07:57;9.30;;;3.10;;
35074;SDS011;21260;34.984;32.490;2023-08-07T13:10:24;13.43;;;3.53;;
35074;SDS011;21260;34.984;32.490;2023-08-07T13:12:54;11.47;;;3.57;;
35074;SDS011;21260;34.984;32.490;2023-08-07T13:15:21;11.40;;;3.17;;
35074;SDS011;21260;34.984;32.490;2023-08-07T13:17:47;9.73;;;3.45;;
35074;SDS011;21260;34.984;32.490;2023-08-07T13:20:14;13.90;;;3.60;;
35074;SDS011;21260;34.984;32.490;2023-08-07T13:22:41;11.15;;;3.10;;
35074;SDS011;21260;34.984;32.490;2023-08-07T13:25:10;13.27;;;3.13;;
35074;SDS011;21260;34.984;32.490;2023-08-07T13:27:40;13.07;;;3.70;;
35074;SDS011;21260;34.984;32.490;2023-08-07T13:30:06;14.32;;;3.45;;
35074;SDS011;21260;34.984;32.490;2023-08-07T13:32:33;11.02;;;3.47;;
35074;SDS011;21260;34.984;32.490;2023-08-07T13:35:01;12.75;;;3.47;;
35074;SDS011;21260;34.984;32.490;2023-08-07T13:37:28;10.63;;;3.05;;
35074;SDS011;21260;34.984;32.490;2023-08-07T13:39:54;12.35;;;3.47;;
35074;SDS011;21260;34.984;32.490;2023-08-07T13:42:23;12.15;;;3.25;;
35074;SDS011;21260;34.984;32.490;2023-08-07T13:44:53;12.60;;;3.17;;
35074;SDS011;21260;34.984;32.490;2023-08-07T13:47:21;15.73;;;3.60;;
35074;SDS011;21260;34.984;32.490;2023-08-07T13:49:47;10.90;;;3.50;;
35074;SDS011;21260;34.984;32.490;2023-08-07T13:52:13;12.40;;;3.40;;
35074;SDS011;21260;34.984;32.490;2023-08-07T13:54:40;12.05;;;3.20;;
35074;SDS011;21260;34.984;32.490;2023-08-07T13:57:06;12.85;;;3.33;;
35074;SDS011;21260;34.984;32.490;2023-08-07T13:59:32;11.13;;;3.35;;
35074;SDS011;21260;34.984;32.490;2023-08-07T14:01:58;13.07;;;3.13;;
35074;SDS011;21260;34.984;32.490;2023-08-07T14:04:25;10.88;;;3.20;;
35074;SDS011;21260;34.984;32.490;2023-08-07T14:06:52;8.83;;;3.40;;
35074;SDS011;21260;34.984;32.490;2023-08-07T14:09:18;13.57;;;3.53;;
35074;SDS011;21260;34.984;32.490;2023-08-07T14:11:47;12.48;;;3.22;;
35074;SDS011;21260;34.984;32.490;2023-08-07T14:14:16;13.93;;;3.40;;
35074;SDS011;21260;34.984;32.490;2023-08-07T14:16:42;11.55;;;3.35;;
35074;SDS011;21260;34.984;32.490;2023-08-07T14:19:09;15.48;;;3.78;;
35074;SDS011;21260;34.984;32.490;2023-08-07T14:21:35;13.45;;;3.13;;
35074;SDS011;21260;34.984;32.490;2023-08-07T14:24:02;13.82;;;3.08;;
35074;SDS011;21260;34.984;32.490;2023-08-07T14:26:30;12.73;;;3.20;;
35074;SDS011;21260;34.984;32.490;2023-08-07T14:28:58;9.85;;;3.38;;
35074;SDS011;21260;34.984;32.490;2023-08-07T14:31:25;12.02;;;3.47;;
35074;SDS011;21260;34.984;32.490;2023-08-07T14:33:52;10.85;;;3.30;;
35074;SDS011;21260;34.984;32.490;2023-08-07T14:36:18;12.57;;;3.65;;
35074;SDS011;21260;34.984;32.490;2023-08-07T14:38:46;10.80;;;3.35;;
35074;SDS011;21260;34.984;32.490;2023-08-07T14:41:12;12.70;;;3.47;;
35074;SDS011;21260;34.984;32.490;2023-08-07T14:43:38;10.10;;;3.33;;
35074;SDS011;21260;34.984;32.490;2023-08-07T14:46:04;12.70;;;3.38;;